Time;durP1;ratioP1;P1;durP2;ratioP2;P2;SDS_P1;SDS_P2;PMS_P1;PMS_P2;Temp;Humidity;BMP_temperature;BMP_pressure;BME280_temperature;BME280_humidity;BME280_pressure;Samples;Min_cycle;Max_cycle;Signal;HPM_P1;HPM_P2
2022/05/28 00:02:17;;;;;;;1.50;0.70;;;8.80;99.00;;;;;;608307;236;26636;-67
2022/05/28 00:04:46;;;;;;;0.80;0.80;;;8.80;99.00;;;;;;604005;235;26907;-67
2022/05/28 00:07:12;;;;;;;1.08;0.77;;;8.80;99.20;;;;;;602698;236;26550;-67
2022/05/28 00:09:40;;;;;;;1.23;0.70;;;8.80;99.10;;;;;;603211;237;26590;-67
2022/05/28 00:12:08;;;;;;;0.82;0.80;;;8.80;99.20;;;;;;606889;235;26593;-67
2022/05/28 00:14:36;;;;;;;1.60;0.90;;;8.80;99.20;;;;;;607110;234;26618;-67
2022/05/28 00:17:04;;;;;;;1.00;0.90;;;8.80;99.10;;;;;;603536;236;26587;-65
2022/05/28 00:19:31;;;;;;;1.08;0.90;;;8.80;99.10;;;;;;608948;236;27263;-65
2022/05/28 00:21:59;;;;;;;1.10;1.00;;;8.80;99.30;;;;;;604100;235;26638;-66
2022/05/28 00:24:27;;;;;;;1.60;0.95;;;8.80;99.30;;;;;;607157;235;26677;-66
2022/05/28 00:26:54;;;;;;;2.33;1.12;;;8.80;99.30;;;;;;605204;236;26636;-65
2022/05/28 00:29:21;;;;;;;4.60;1.60;;;8.80;99.30;;;;;;606337;235;26633;-66
2022/05/28 00:31:49;;;;;;;3.35;1.25;;;8.80;99.30;;;;;;604873;235;26995;-66
2022/05/28 00:34:17;;;;;;;2.72;1.20;;;8.80;99.30;;;;;;603723;235;26639;-66
2022/05/28 00:36:44;;;;;;;3.67;1.00;;;8.70;99.20;;;;;;605433;232;26839;-66
2022/05/28 00:39:12;;;;;;;1.90;1.00;;;8.80;99.30;;;;;;604628;234;26645;-65
2022/05/28 00:41:40;;;;;;;2.92;0.90;;;8.80;99.30;;;;;;602927;236;26646;-65
2022/05/28 00:44:07;;;;;;;3.15;1.20;;;8.80;99.30;;;;;;604609;236;26665;-66
2022/05/28 00:46:34;;;;;;;1.85;1.10;;;8.80;99.20;;;;;;606414;235;26603;-65
2022/05/28 00:49:02;;;;;;;2.78;1.52;;;8.80;99.10;;;;;;604877;235;26898;-66
2022/05/28 00:51:30;;;;;;;2.40;1.12;;;8.80;99.20;;;;;;606343;234;26594;-66
2022/05/28 00:53:59;;;;;;;1.70;1.23;;;8.80;99.20;;;;;;606599;234;26605;-66
2022/05/28 00:56:27;;;;;;;2.08;1.00;;;8.80;99.20;;;;;;605300;234;26633;-65
2022/05/28 00:58:54;;;;;;;3.22;1.20;;;8.80;99.10;;;;;;608713;235;26603;-66
2022/05/28 01:01:22;;;;;;;2.40;1.30;;;8.80;99.10;;;;;;603522;237;26935;-66
2022/05/28 01:03:52;;;;;;;1.95;1.02;;;8.80;98.90;;;;;;605835;234;26826;-65
2022/05/28 01:06:19;;;;;;;1.17;0.95;;;8.70;99.00;;;;;;605843;235;26585;-65
2022/05/28 01:08:48;;;;;;;2.55;1.12;;;8.70;99.00;;;;;;603594;235;26664;-66
2022/05/28 01:11:19;;;;;;;2.50;1.30;;;8.80;98.90;;;;;;602290;236;26582;-65
2022/05/28 01:13:45;;;;;;;2.50;1.27;;;8.70;99.00;;;;;;601794;233;27354;-66
2022/05/28 01:16:21;;;;;;;3.00;1.08;;;8.80;98.90;;;;;;604795;232;26585;-66
2022/05/28 01:18:49;;;;;;;3.22;1.20;;;8.80;98.70;;;;;;603466;237;26780;-66
2022/05/28 01:21:33;;;;;;;2.20;1.10;;;8.80;98.70;;;;;;605109;238;26567;-66
2022/05/28 01:24:01;;;;;;;3.15;1.15;;;8.80;98.90;;;;;;603169;236;26877;-66
2022/05/28 01:26:32;;;;;;;2.42;1.02;;;8.80;98.40;;;;;;609999;236;26623;-66
2022/05/28 01:28:59;;;;;;;2.17;1.08;;;8.70;98.30;;;;;;609623;236;26796;-65
2022/05/28 01:31:27;;;;;;;4.20;1.52;;;8.80;98.20;;;;;;609612;236;26573;-65
2022/05/28 01:33:55;;;;;;;2.03;1.08;;;8.80;98.00;;;;;;609619;236;27141;-66
2022/05/28 01:36:22;;;;;;;2.90;1.37;;;8.80;98.10;;;;;;611144;235;26605;-68
2022/05/28 01:38:50;;;;;;;1.42;1.10;;;8.80;98.00;;;;;;612225;234;26603;-68
2022/05/28 01:41:17;;;;;;;3.25;1.17;;;8.80;98.00;;;;;;609132;235;26622;-68
2022/05/28 01:43:45;;;;;;;2.17;1.08;;;8.80;97.70;;;;;;601366;234;26688;-68
2022/05/28 01:46:11;;;;;;;3.30;1.42;;;8.80;97.60;;;;;;602921;236;26852;-68
2022/05/28 01:48:39;;;;;;;3.85;1.30;;;8.80;97.60;;;;;;601512;237;26624;-68
2022/05/28 01:51:06;;;;;;;3.25;1.17;;;8.80;97.60;;;;;;608273;236;26589;-69
2022/05/28 01:56:07;;;;;;;1.77;1.10;;;8.80;97.50;;;;;;609268;235;26607;-69
2022/05/28 01:58:34;;;;;;;2.70;1.30;;;8.70;97.50;;;;;;604670;235;26828;-68
2022/05/28 02:01:01;;;;;;;1.52;1.00;;;8.70;97.60;;;;;;601581;236;26630;-68
2022/05/28 02:03:28;;;;;;;3.60;1.30;;;8.80;97.60;;;;;;608812;235;27285;-68
2022/05/28 02:05:56;;;;;;;2.25;1.20;;;8.80;97.20;;;;;;607959;235;26574;-68
2022/05/28 02:08:24;;;;;;;1.35;1.05;;;8.80;97.40;;;;;;602574;235;26582;-68
2022/05/28 02:10:53;;;;;;;1.50;1.20;;;8.80;97.40;;;;;;605296;235;26629;-69
2022/05/28 02:13:24;;;;;;;2.65;1.27;;;8.80;97.50;;;;;;604617;236;26649;-69
2022/05/28 02:15:52;;;;;;;2.30;1.23;;;8.70;97.50;;;;;;602848;236;26588;-68
2022/05/28 02:18:22;;;;;;;3.67;1.42;;;8.70;97.70;;;;;;604325;237;27303;-69
2022/05/28 02:20:53;;;;;;;3.67;1.40;;;8.70;97.80;;;;;;609020;236;26615;-69
2022/05/28 02:23:20;;;;;;;2.37;1.10;;;8.70;97.90;;;;;;604805;238;26594;-69
2022/05/28 02:26:02;;;;;;;2.83;1.15;;;8.70;98.30;;;;;;608128;235;26596;-68
2022/05/28 02:28:29;;;;;;;5.70;1.30;;;8.70;98.10;;;;;;606958;230;26614;-68
2022/05/28 02:31:02;;;;;;;3.05;1.35;;;8.70;98.20;;;;;;602487;236;26777;-68
2022/05/28 02:33:24;;;;;;;1.42;1.00;;;8.60;98.10;;;;;;603205;236;26583;-67
2022/05/28 02:35:52;;;;;;;4.53;1.60;;;8.70;98.10;;;;;;603906;236;26550;-68
2022/05/28 02:38:19;;;;;;;3.40;1.27;;;8.70;97.90;;;;;;606929;235;26535;-68
2022/05/28 02:40:46;;;;;;;3.12;1.45;;;8.70;97.90;;;;;;607853;235;26778;-68
2022/05/28 02:43:14;;;;;;;1.98;1.42;;;8.70;97.70;;;;;;603569;236;26621;-68
2022/05/28 02:45:42;;;;;;;3.12;1.30;;;8.70;97.90;;;;;;606885;236;26652;-68
2022/05/28 02:48:09;;;;;;;3.15;1.30;;;8.70;97.90;;;;;;609266;235;26652;-67
2022/05/28 02:50:36;;;;;;;2.22;1.20;;;8.70;97.90;;;;;;603237;235;26614;-68
2022/05/28 02:53:05;;;;;;;1.85;1.17;;;8.70;97.80;;;;;;602424;236;26875;-68
2022/05/28 02:55:32;;;;;;;2.70;1.35;;;8.70;97.80;;;;;;601508;237;26866;-67
2022/05/28 02:58:00;;;;;;;2.47;1.67;;;8.70;97.70;;;;;;608218;236;26613;-68
2022/05/28 03:00:28;;;;;;;5.87;1.62;;;8.70;97.80;;;;;;609306;236;26577;-67
2022/05/28 03:02:55;;;;;;;3.03;1.20;;;8.70;97.80;;;;;;604245;238;26595;-68
2022/05/28 03:05:24;;;;;;;3.92;1.25;;;8.70;97.60;;;;;;601525;239;26680;-68
2022/05/28 03:07:49;;;;;;;1.92;1.40;;;8.70;97.70;;;;;;601422;238;26854;-68
2022/05/28 03:10:17;;;;;;;4.10;1.23;;;8.80;97.40;;;;;;608676;231;26645;-68
2022/05/28 03:12:44;;;;;;;3.30;1.40;;;8.80;97.10;;;;;;606748;235;26666;-68
2022/05/28 03:15:11;;;;;;;2.62;1.10;;;8.80;96.80;;;;;;607559;235;26898;-68
2022/05/28 03:17:39;;;;;;;2.03;1.30;;;8.80;96.70;;;;;;605880;234;26644;-68
2022/05/28 03:20:07;;;;;;;2.30;1.20;;;8.80;96.70;;;;;;602386;237;26796;-68
2022/05/28 03:22:35;;;;;;;2.70;1.30;;;8.90;96.60;;;;;;602317;239;26825;-68
2022/05/28 03:25:03;;;;;;;3.10;1.60;;;8.90;96.60;;;;;;606998;234;26852;-69
2022/05/28 03:27:30;;;;;;;2.78;1.23;;;8.90;96.60;;;;;;602959;235;26606;-69
2022/05/28 03:29:57;;;;;;;2.75;1.40;;;8.90;96.50;;;;;;603905;236;27240;-68
2022/05/28 03:32:25;;;;;;;2.40;1.10;;;9.10;96.20;;;;;;603172;236;26569;-67
2022/05/28 03:34:53;;;;;;;3.10;1.60;;;9.10;96.10;;;;;;602761;234;26609;-68
2022/05/28 03:37:20;;;;;;;3.80;1.37;;;9.00;96.10;;;;;;607710;236;26587;-68
2022/05/28 03:39:48;;;;;;;2.72;1.20;;;9.00;96.10;;;;;;605771;236;26570;-69
2022/05/28 03:42:16;;;;;;;4.22;1.20;;;9.20;95.70;;;;;;602394;236;26598;-69
2022/05/28 03:44:43;;;;;;;2.80;1.12;;;9.20;95.70;;;;;;604026;233;26609;-69
2022/05/28 03:47:10;;;;;;;1.67;1.20;;;9.30;95.20;;;;;;602118;235;26596;-68
2022/05/28 03:49:37;;;;;;;1.90;1.30;;;9.40;95.10;;;;;;602673;238;26942;-68
2022/05/28 03:52:05;;;;;;;4.07;1.30;;;9.30;95.00;;;;;;604389;237;26579;-68
2022/05/28 03:54:32;;;;;;;1.73;1.30;;;9.40;94.80;;;;;;607394;232;26839;-68
2022/05/28 03:57:00;;;;;;;3.22;1.52;;;9.50;94.60;;;;;;605663;235;26635;-68
2022/05/28 03:59:27;;;;;;;2.08;1.30;;;9.40;94.50;;;;;;603535;236;26840;-68
2022/05/28 04:01:55;;;;;;;2.17;1.30;;;9.30;94.60;;;;;;602461;236;26621;-68
2022/05/28 04:04:22;;;;;;;2.83;1.17;;;9.60;94.10;;;;;;601544;236;26650;-68
2022/05/28 04:06:50;;;;;;;2.58;1.20;;;9.50;94.10;;;;;;607260;236;26641;-68
2022/05/28 04:09:17;;;;;;;2.00;1.30;;;9.60;94.00;;;;;;608953;231;26590;-68
2022/05/28 04:11:44;;;;;;;2.05;1.12;;;9.60;93.60;;;;;;605212;235;26812;-68
2022/05/28 04:14:11;;;;;;;2.72;1.17;;;9.60;93.40;;;;;;603954;235;26570;-68
2022/05/28 04:16:38;;;;;;;5.53;1.23;;;9.80;92.80;;;;;;605851;236;26873;-68
2022/05/28 04:19:06;;;;;;;3.47;1.27;;;10.30;91.00;;;;;;605811;236;26590;-68
2022/05/28 04:21:34;;;;;;;1.92;1.30;;;10.20;90.90;;;;;;609803;235;26623;-68
2022/05/28 04:24:02;;;;;;;2.30;1.17;;;10.00;91.60;;;;;;607035;231;26665;-68
2022/05/28 04:26:30;;;;;;;2.42;1.20;;;10.00;91.60;;;;;;605982;235;26578;-68
2022/05/28 04:28:57;;;;;;;3.50;1.50;;;9.90;93.70;;;;;;608466;234;26604;-68
2022/05/28 04:31:25;;;;;;;1.90;1.30;;;9.70;96.40;;;;;;604421;235;26591;-69
2022/05/28 04:33:53;;;;;;;3.25;1.27;;;9.50;98.20;;;;;;607255;235;26653;-69
2022/05/28 04:36:20;;;;;;;3.03;1.30;;;9.50;98.10;;;;;;608760;235;26899;-67
2022/05/28 04:38:48;;;;;;;2.90;1.52;;;9.20;99.90;;;;;;603049;233;26582;-67
2022/05/28 04:41:15;;;;;;;2.95;1.33;;;8.90;99.90;;;;;;603740;233;26834;-68
2022/05/28 04:43:43;;;;;;;2.37;1.30;;;8.40;99.90;;;;;;612783;234;26611;-68
2022/05/28 04:46:11;;;;;;;3.20;1.40;;;8.00;99.90;;;;;;612737;234;26557;-68
2022/05/28 04:48:38;;;;;;;2.47;1.30;;;8.00;99.90;;;;;;610569;235;26833;-68
2022/05/28 04:51:05;;;;;;;3.00;1.55;;;8.00;99.90;;;;;;604369;238;26578;-68
2022/05/28 04:53:32;;;;;;;2.05;1.05;;;8.10;99.90;;;;;;602315;237;26809;-68
2022/05/28 04:55:59;;;;;;;1.80;1.05;;;8.10;99.90;;;;;;605783;235;26594;-68
2022/05/28 04:58:27;;;;;;;0.98;0.95;;;8.20;99.90;;;;;;609972;234;26582;-68
2022/05/28 05:00:55;;;;;;;2.33;1.30;;;8.20;99.90;;;;;;606801;235;26819;-68
2022/05/28 05:03:22;;;;;;;2.70;0.98;;;8.20;99.90;;;;;;610633;234;26596;-68
2022/05/28 05:05:49;;;;;;;2.03;1.00;;;8.20;99.90;;;;;;604021;235;27339;-68
2022/05/28 05:08:17;;;;;;;1.95;1.27;;;8.30;99.90;;;;;;601486;238;26648;-68
2022/05/28 05:10:46;;;;;;;2.80;0.93;;;8.40;99.90;;;;;;601800;236;26637;-68
2022/05/28 05:13:12;;;;;;;2.50;0.95;;;8.40;99.90;;;;;;604473;238;26578;-68
2022/05/28 05:15:39;;;;;;;2.40;1.00;;;8.60;99.90;;;;;;606461;235;26557;-68
2022/05/28 05:18:06;;;;;;;3.28;1.23;;;8.80;99.90;;;;;;609857;236;26831;-68
2022/05/28 05:20:34;;;;;;;4.00;1.10;;;9.00;99.90;;;;;;606729;235;26627;-68
2022/05/28 05:23:01;;;;;;;3.25;1.27;;;9.10;99.90;;;;;;610067;234;27504;-70
2022/05/28 05:25:29;;;;;;;1.33;0.88;;;9.70;99.90;;;;;;604359;235;26624;-69
2022/05/28 05:27:57;;;;;;;2.78;1.30;;;9.80;99.90;;;;;;604419;235;26627;-69
2022/05/28 05:30:24;;;;;;;2.78;1.10;;;9.70;99.90;;;;;;603449;235;27281;-69
2022/05/28 05:32:51;;;;;;;3.58;1.00;;;9.70;98.20;;;;;;604111;230;26632;-69
2022/05/28 05:35:18;;;;;;;1.80;1.20;;;9.80;98.10;;;;;;603759;234;26862;-69
2022/05/28 05:37:46;;;;;;;1.33;1.10;;;10.10;95.80;;;;;;606206;233;26648;-69
2022/05/28 05:40:13;;;;;;;1.62;0.90;;;10.30;95.50;;;;;;607805;234;27275;-69
2022/05/28 05:42:40;;;;;;;2.35;1.00;;;10.20;95.20;;;;;;604363;234;26598;-69
2022/05/28 05:45:08;;;;;;;2.65;1.05;;;10.40;94.00;;;;;;606658;234;26612;-69
2022/05/28 05:47:37;;;;;;;1.80;1.00;;;10.30;93.40;;;;;;605643;235;26592;-69
2022/05/28 05:50:05;;;;;;;2.75;1.05;;;10.40;93.70;;;;;;605904;235;26571;-69
2022/05/28 05:52:32;;;;;;;1.08;0.85;;;10.30;93.60;;;;;;606674;235;26940;-69
2022/05/28 05:55:00;;;;;;;2.10;1.15;;;10.40;93.40;;;;;;605018;234;26612;-69
2022/05/28 05:57:27;;;;;;;1.37;0.98;;;10.50;92.30;;;;;;606235;235;26824;-68
2022/05/28 05:59:54;;;;;;;2.00;0.98;;;10.50;92.20;;;;;;603367;235;26577;-68
2022/05/28 06:02:21;;;;;;;2.67;1.05;;;10.50;91.80;;;;;;602704;235;26842;-68
2022/05/28 06:04:49;;;;;;;1.42;1.00;;;10.40;91.80;;;;;;605398;235;26603;-68
2022/05/28 06:07:17;;;;;;;1.25;0.90;;;10.60;92.00;;;;;;604171;235;26577;-69
2022/05/28 06:09:44;;;;;;;1.70;0.95;;;10.60;92.00;;;;;;602973;235;26591;-68
2022/05/28 06:12:12;;;;;;;3.35;1.02;;;10.60;90.80;;;;;;593049;240;26653;-70
2022/05/28 06:14:40;;;;;;;1.15;1.05;;;10.40;90.70;;;;;;582324;247;26726;-69
2022/05/28 06:17:08;;;;;;;3.47;0.88;;;10.30;90.80;;;;;;582033;247;26696;-69
2022/05/28 06:19:36;;;;;;;4.07;1.25;;;10.50;90.70;;;;;;579876;248;26688;-69
2022/05/28 06:22:04;;;;;;;0.80;0.80;;;10.70;90.20;;;;;;579821;241;26715;-69
2022/05/28 06:24:31;;;;;;;1.62;0.90;;;10.60;90.10;;;;;;581765;245;26744;-69
2022/05/28 06:26:59;;;;;;;1.23;0.85;;;10.70;88.50;;;;;;609848;235;26856;-69
2022/05/28 06:29:26;;;;;;;0.95;0.95;;;10.80;89.20;;;;;;607973;235;26584;-69
2022/05/28 06:31:53;;;;;;;1.50;0.85;;;11.00;87.20;;;;;;607313;236;26876;-68
2022/05/28 06:34:20;;;;;;;1.37;0.93;;;10.90;86.90;;;;;;612316;234;26667;-68
2022/05/28 06:36:47;;;;;;;3.33;1.08;;;11.00;87.20;;;;;;607210;235;26861;-69
2022/05/28 06:39:15;;;;;;;2.28;1.10;;;10.90;86.00;;;;;;607663;236;26622;-68
2022/05/28 06:41:42;;;;;;;2.45;1.20;;;11.00;85.60;;;;;;604541;235;26832;-68
2022/05/28 06:44:10;;;;;;;1.08;1.05;;;11.10;86.20;;;;;;601751;236;26662;-68
2022/05/28 06:46:38;;;;;;;1.25;0.80;;;11.50;84.00;;;;;;601590;239;26638;-69
2022/05/28 06:49:06;;;;;;;2.42;1.00;;;11.50;82.90;;;;;;603371;235;26636;-69
2022/05/28 06:51:34;;;;;;;1.37;0.85;;;11.60;82.70;;;;;;604782;235;26593;-68
2022/05/28 06:54:02;;;;;;;2.22;0.90;;;11.60;81.90;;;;;;604793;235;26600;-68
2022/05/28 06:56:30;;;;;;;2.87;1.00;;;11.60;81.80;;;;;;603171;237;26597;-69
2022/05/28 06:58:57;;;;;;;1.55;1.20;;;11.70;81.90;;;;;;602666;236;26879;-68
2022/05/28 07:01:26;;;;;;;2.10;0.93;;;11.70;81.00;;;;;;610433;236;26588;-68
2022/05/28 07:03:53;;;;;;;3.97;1.00;;;11.70;81.10;;;;;;607751;235;26859;-68
2022/05/28 07:06:20;;;;;;;1.48;0.80;;;11.70;80.10;;;;;;592796;239;26608;-68
2022/05/28 07:08:47;;;;;;;1.30;1.00;;;11.90;80.00;;;;;;593902;242;26857;-68
2022/05/28 07:11:14;;;;;;;1.67;1.00;;;12.00;79.10;;;;;;582524;246;26708;-68
2022/05/28 07:13:41;;;;;;;1.15;0.90;;;12.20;79.20;;;;;;580893;244;26669;-68
2022/05/28 07:16:11;;;;;;;1.65;0.90;;;12.10;77.80;;;;;;581345;245;26634;-69
2022/05/28 07:18:37;;;;;;;1.80;0.90;;;12.10;77.80;;;;;;581697;245;26629;-69
2022/05/28 07:21:04;;;;;;;0.80;0.80;;;11.90;78.40;;;;;;595738;239;26765;-68
2022/05/28 07:23:32;;;;;;;1.73;1.05;;;11.70;78.00;;;;;;593735;239;26626;-68
2022/05/28 07:26:13;;;;;;;108.37;20.02;;;11.90;78.20;;;;;;588833;243;26719;-67
2022/05/28 07:28:41;;;;;;;118.95;21.10;;;11.90;78.20;;;;;;600797;239;26576;-68
2022/05/28 07:31:10;;;;;;;105.82;21.15;;;12.80;75.60;;;;;;610711;235;26628;-69
2022/05/28 07:33:38;;;;;;;126.62;18.45;;;12.80;75.60;;;;;;606438;235;26615;-68
2022/05/28 07:36:05;;;;;;;96.53;17.45;;;12.50;76.10;;;;;;603904;235;26845;-68
2022/05/28 07:38:33;;;;;;;66.53;14.18;;;12.50;76.30;;;;;;603612;236;26617;-70
2022/05/28 07:41:01;;;;;;;76.93;15.90;;;12.70;75.10;;;;;;604379;235;27065;-70
2022/05/28 07:43:29;;;;;;;83.62;14.98;;;12.30;74.60;;;;;;605914;234;26665;-71
2022/05/28 07:45:57;;;;;;;57.00;11.98;;;12.20;74.60;;;;;;604926;236;26647;-70
2022/05/28 07:48:25;;;;;;;64.30;12.43;;;12.40;74.70;;;;;;605234;235;26642;-70
2022/05/28 07:50:53;;;;;;;66.00;11.38;;;12.60;73.30;;;;;;605073;235;26621;-70
2022/05/28 07:53:21;;;;;;;34.38;8.07;;;12.60;72.60;;;;;;603529;236;26638;-69
2022/05/28 07:55:49;;;;;;;35.97;8.88;;;12.90;71.80;;;;;;604440;235;26637;-71
2022/05/28 07:58:18;;;;;;;34.22;8.80;;;12.80;71.20;;;;;;605249;234;26631;-71
2022/05/28 08:00:45;;;;;;;32.72;7.65;;;12.70;71.40;;;;;;605932;232;26618;-71
2022/05/28 08:03:13;;;;;;;26.35;6.25;;;13.00;71.30;;;;;;605339;235;26626;-71
2022/05/28 08:05:41;;;;;;;16.48;4.93;;;13.30;69.70;;;;;;605451;235;26586;-71
2022/05/28 08:08:08;;;;;;;19.05;5.75;;;13.20;69.10;;;;;;604502;235;26845;-71
2022/05/28 08:10:36;;;;;;;9.32;2.30;;;13.20;68.00;;;;;;604374;235;26628;-70
2022/05/28 08:13:12;;;;;;;8.82;2.58;;;13.00;67.60;;;;;;607768;235;26845;-74
2022/05/28 08:15:39;;;;;;;6.25;2.30;;;13.00;68.50;;;;;;604237;235;26819;-73
2022/05/28 08:18:06;;;;;;;7.95;2.15;;;13.10;67.30;;;;;;606006;235;26573;-70
2022/05/28 08:23:09;;;;;;;8.68;1.80;;;13.00;66.30;;;;;;593226;240;26656;-70
2022/05/28 08:25:39;;;;;;;2.80;1.50;;;13.10;64.60;;;;;;582526;245;26648;-70
2022/05/28 08:28:07;;;;;;;5.00;1.90;;;13.10;64.40;;;;;;581513;245;26652;-71
2022/05/28 08:30:34;;;;;;;6.07;1.92;;;12.90;64.40;;;;;;584381;244;26636;-70
2022/05/28 08:33:02;;;;;;;7.07;1.73;;;12.90;65.00;;;;;;584762;244;26609;-70
2022/05/28 08:35:30;;;;;;;5.85;1.42;;;12.90;65.00;;;;;;582308;244;26692;-70
2022/05/28 08:37:58;;;;;;;5.37;1.73;;;13.10;64.60;;;;;;581598;244;26646;-71
2022/05/28 08:40:25;;;;;;;5.40;1.58;;;13.40;62.70;;;;;;584594;244;26639;-69
2022/05/28 08:42:53;;;;;;;4.20;1.75;;;14.00;62.00;;;;;;581222;245;26914;-70
2022/05/28 08:45:21;;;;;;;3.85;1.55;;;14.00;61.90;;;;;;582883;245;27045;-68
2022/05/28 08:47:48;;;;;;;4.10;1.55;;;14.10;61.20;;;;;;583601;244;27419;-70
2022/05/28 08:50:15;;;;;;;7.18;1.58;;;14.20;60.90;;;;;;593109;240;26602;-70
2022/05/28 08:55:37;;;;;;;3.40;1.40;;;13.80;60.00;;;;;;584682;239;26652;-69
2022/05/28 08:58:05;;;;;;;6.03;1.17;;;13.90;59.70;;;;;;604285;235;26630;-66
2022/05/28 09:00:34;;;;;;;2.90;1.30;;;13.60;60.40;;;;;;605547;235;26630;-67
2022/05/28 09:03:04;;;;;;;3.25;1.70;;;13.10;61.80;;;;;;605758;235;26624;-66
2022/05/28 09:05:32;;;;;;;3.33;1.42;;;13.20;61.70;;;;;;606004;234;26887;-67
2022/05/28 09:07:59;;;;;;;3.92;1.70;;;13.40;61.50;;;;;;605342;235;26642;-67
2022/05/28 09:10:27;;;;;;;2.72;1.30;;;13.70;59.30;;;;;;603628;236;26832;-68
2022/05/28 09:12:55;;;;;;;5.55;1.45;;;13.60;59.40;;;;;;605649;235;26650;-67
2022/05/28 09:15:23;;;;;;;1.40;1.30;;;13.70;59.40;;;;;;604548;235;26697;-67
2022/05/28 09:17:51;;;;;;;2.10;1.33;;;13.20;59.20;;;;;;605439;235;26574;-67
2022/05/28 09:20:20;;;;;;;3.45;1.37;;;13.30;59.50;;;;;;611227;234;26575;-65
2022/05/28 09:22:46;;;;;;;4.65;1.73;;;13.20;59.40;;;;;;609117;235;26602;-67
2022/05/28 09:25:14;;;;;;;4.00;1.90;;;13.90;58.40;;;;;;610267;235;26662;-66
2022/05/28 09:28:03;;;;;;;5.07;2.20;;;13.80;58.20;;;;;;610763;235;26616;-66
2022/05/28 09:30:39;;;;;;;6.97;2.35;;;13.90;57.80;;;;;;609301;234;26617;-66
2022/05/28 09:33:13;;;;;;;7.53;2.00;;;13.90;57.80;;;;;;602106;237;26613;-67
2022/05/28 09:35:55;;;;;;;3.80;2.15;;;13.80;57.60;;;;;;601288;236;26828;-66
2022/05/28 09:38:33;;;;;;;6.97;2.33;;;13.70;57.30;;;;;;608331;236;26613;-67
2022/05/28 09:41:35;;;;;;;7.75;2.40;;;13.90;57.20;;;;;;602781;238;26596;-65
2022/05/28 09:44:05;;;;;;;7.05;1.77;;;14.20;57.00;;;;;;603134;235;26580;-66
2022/05/28 09:46:36;;;;;;;3.03;1.30;;;14.10;56.40;;;;;;607606;235;26606;-66
2022/05/28 09:49:04;;;;;;;4.53;1.75;;;14.10;56.40;;;;;;603002;238;26608;-67
2022/05/28 09:51:31;;;;;;;7.90;2.08;;;14.10;56.60;;;;;;603749;238;26586;-67
2022/05/28 09:56:37;;;;;;;6.78;2.05;;;14.40;54.70;;;;;;602750;238;26654;-68
2022/05/28 09:59:05;;;;;;;3.17;1.83;;;14.60;55.00;;;;;;604582;238;26879;-70
2022/05/28 10:01:34;;;;;;;4.35;1.77;;;14.40;54.70;;;;;;601214;238;27288;-66
2022/05/28 10:06:32;;;;;;;4.25;1.90;;;13.90;56.30;;;;;;606548;236;27293;-68
2022/05/28 10:08:59;;;;;;;4.32;1.70;;;14.30;57.40;;;;;;604942;235;26543;-66
2022/05/28 10:11:26;;;;;;;5.30;1.73;;;14.20;57.90;;;;;;600542;239;26645;-66
2022/05/28 10:13:54;;;;;;;5.45;1.60;;;13.90;59.10;;;;;;604055;237;26586;-67
2022/05/28 10:16:22;;;;;;;4.50;1.98;;;13.80;59.20;;;;;;602437;237;26647;-68
2022/05/28 10:18:52;;;;;;;2.80;1.40;;;13.70;59.20;;;;;;602908;237;26560;-67
2022/05/28 10:21:19;;;;;;;4.55;1.50;;;13.60;59.20;;;;;;603688;236;26816;-68
2022/05/28 10:23:50;;;;;;;12.48;3.17;;;13.70;59.30;;;;;;604469;234;26662;-68
2022/05/28 10:26:20;;;;;;;18.02;4.47;;;13.40;58.90;;;;;;609505;235;26595;-67
2022/05/28 10:28:48;;;;;;;17.17;5.28;;;13.90;59.70;;;;;;603872;237;26594;-69
2022/05/28 10:31:26;;;;;;;15.65;5.10;;;14.10;59.60;;;;;;602382;237;26623;-69
2022/05/28 10:33:53;;;;;;;15.25;3.85;;;14.10;59.60;;;;;;609864;236;26854;-68
2022/05/28 10:36:20;;;;;;;18.90;5.37;;;14.20;58.90;;;;;;607866;235;26569;-69
2022/05/28 10:38:47;;;;;;;17.48;7.62;;;14.30;58.50;;;;;;604055;235;26809;-68
2022/05/28 10:41:20;;;;;;;15.52;7.35;;;14.60;58.10;;;;;;610531;235;26560;-69
2022/05/28 10:43:49;;;;;;;17.25;6.90;;;15.00;57.50;;;;;;603023;234;26601;-69
2022/05/28 10:46:27;;;;;;;25.50;8.40;;;15.30;56.80;;;;;;602220;238;26565;-69
2022/05/28 10:48:56;;;;;;;16.33;7.57;;;15.40;56.10;;;;;;602184;238;26545;-70
2022/05/28 10:51:35;;;;;;;17.40;9.05;;;15.50;55.70;;;;;;603755;236;26836;-69
2022/05/28 10:54:21;;;;;;;18.08;8.15;;;15.50;55.80;;;;;;603127;236;26605;-67
2022/05/28 10:56:53;;;;;;;16.50;7.25;;;15.10;55.80;;;;;;602785;236;26610;-66
2022/05/28 10:59:38;;;;;;;12.32;6.70;;;14.90;56.00;;;;;;603781;237;26591;-69
2022/05/28 11:02:13;;;;;;;15.40;6.82;;;14.80;55.10;;;;;;599493;238;26610;-68
2022/05/28 11:04:44;;;;;;;15.20;7.00;;;14.80;55.10;;;;;;601292;236;26712;-68
2022/05/28 11:07:17;;;;;;;18.75;10.88;;;14.80;54.70;;;;;;601154;235;26865;-71
2022/05/28 11:09:52;;;;;;;20.23;10.85;;;15.00;53.20;;;;;;600764;236;26639;-68
2022/05/28 11:12:31;;;;;;;22.37;12.30;;;14.90;53.10;;;;;;603711;236;27147;-69
2022/05/28 11:15:15;;;;;;;16.12;9.60;;;15.00;53.40;;;;;;605893;236;26681;-69
2022/05/28 11:17:49;;;;;;;22.83;12.02;;;15.10;52.90;;;;;;603691;238;26558;-69
2022/05/28 11:20:17;;;;;;;16.73;10.05;;;15.10;52.90;;;;;;604882;236;26561;-70
2022/05/28 11:22:49;;;;;;;16.40;8.68;;;15.70;51.90;;;;;;603232;235;26860;-70
2022/05/28 11:25:17;;;;;;;15.98;7.93;;;15.70;51.80;;;;;;601408;237;26658;-67
2022/05/28 11:28:05;;;;;;;15.55;8.93;;;15.70;50.70;;;;;;604687;235;26898;-68
2022/05/28 11:30:36;;;;;;;13.80;7.47;;;16.40;50.50;;;;;;601153;235;26649;-69
2022/05/28 11:33:04;;;;;;;12.75;6.40;;;16.40;50.50;;;;;;605030;235;26819;-70
2022/05/28 11:35:39;;;;;;;96.35;19.70;;;16.30;50.50;;;;;;604790;235;26878;-69
2022/05/28 11:38:07;;;;;;;120.72;26.42;;;16.20;50.70;;;;;;605137;237;27022;-70
2022/05/28 11:40:35;;;;;;;132.80;28.73;;;16.00;51.20;;;;;;603075;237;26857;-69
2022/05/28 11:43:04;;;;;;;106.15;23.90;;;16.60;50.00;;;;;;603834;234;26585;-71
2022/05/28 11:45:40;;;;;;;90.05;20.95;;;16.40;50.30;;;;;;606285;235;26635;-69
2022/05/28 11:48:11;;;;;;;82.12;17.50;;;16.40;50.30;;;;;;609877;234;26585;-66
2022/05/28 11:53:16;;;;;;;58.70;14.70;;;16.00;54.40;;;;;;605796;235;27240;-68
2022/05/28 11:55:44;;;;;;;55.35;13.18;;;16.20;55.10;;;;;;605235;235;26604;-67
2022/05/28 11:58:26;;;;;;;44.22;12.90;;;16.10;55.70;;;;;;606297;236;26584;-67
2022/05/28 12:00:55;;;;;;;37.95;12.45;;;15.90;56.40;;;;;;605694;236;26597;-67
2022/05/28 12:03:22;;;;;;;37.35;11.15;;;15.60;57.20;;;;;;612761;234;26646;-67
2022/05/28 12:05:51;;;;;;;35.55;11.50;;;15.80;58.10;;;;;;606680;236;26579;-67
2022/05/28 12:08:21;;;;;;;34.00;11.18;;;15.70;56.90;;;;;;605253;235;26573;-66
2022/05/28 12:10:51;;;;;;;30.45;10.00;;;15.60;56.80;;;;;;603814;238;26599;-68
2022/05/28 12:13:24;;;;;;;22.52;8.13;;;16.20;56.30;;;;;;609477;236;26662;-67
2022/05/28 12:15:52;;;;;;;13.32;6.03;;;16.10;56.20;;;;;;603696;235;26673;-68
2022/05/28 12:18:21;;;;;;;15.88;5.55;;;16.70;55.80;;;;;;600675;239;26832;-67
2022/05/28 12:20:48;;;;;;;11.00;4.65;;;17.10;55.50;;;;;;601426;239;26628;-68
2022/05/28 12:23:16;;;;;;;8.43;3.90;;;17.40;53.60;;;;;;601333;238;26627;-67
2022/05/28 12:25:44;;;;;;;9.57;4.30;;;17.80;53.50;;;;;;600657;239;26614;-67
2022/05/28 12:28:12;;;;;;;7.20;3.75;;;17.80;53.10;;;;;;601542;237;26631;-67
2022/05/28 12:30:48;;;;;;;5.93;3.15;;;18.00;51.90;;;;;;600583;239;26649;-67
2022/05/28 12:33:23;;;;;;;9.43;3.75;;;18.00;51.70;;;;;;601437;239;26633;-67
2022/05/28 12:35:55;;;;;;;5.45;3.40;;;17.20;52.40;;;;;;601519;237;26624;-67
2022/05/28 12:38:22;;;;;;;6.80;3.00;;;17.10;52.00;;;;;;601438;239;26658;-67
2022/05/28 12:40:56;;;;;;;6.45;3.45;;;16.40;53.30;;;;;;600880;239;26642;-67
2022/05/28 12:43:38;;;;;;;7.47;2.70;;;15.80;56.80;;;;;;601529;237;27335;-67
2022/05/28 12:46:12;;;;;;;6.15;2.75;;;15.20;57.90;;;;;;601909;237;26600;-67
2022/05/28 12:48:40;;;;;;;7.22;3.17;;;15.50;58.20;;;;;;602923;238;26997;-67
2022/05/28 12:51:07;;;;;;;6.05;2.53;;;16.50;56.90;;;;;;602572;237;26590;-67
2022/05/28 12:53:36;;;;;;;5.05;2.53;;;17.70;55.90;;;;;;601551;235;26885;-67
2022/05/28 12:56:04;;;;;;;4.32;2.12;;;18.90;53.40;;;;;;601415;235;26866;-67
2022/05/28 12:58:33;;;;;;;5.15;2.05;;;19.60;51.20;;;;;;602097;237;26542;-67
2022/05/28 13:01:01;;;;;;;4.12;2.25;;;19.60;51.20;;;;;;602086;237;26586;-66
2022/05/28 13:03:30;;;;;;;4.87;2.62;;;18.60;51.00;;;;;;602016;237;26625;-65
2022/05/28 13:06:03;;;;;;;4.03;1.92;;;18.60;51.10;;;;;;601756;237;26600;-67
2022/05/28 13:08:31;;;;;;;5.22;2.08;;;18.60;49.50;;;;;;601812;235;26605;-67
2022/05/28 13:10:59;;;;;;;3.10;1.87;;;18.60;49.50;;;;;;601816;233;26594;-67
2022/05/28 13:13:46;;;;;;;2.80;1.98;;;19.30;49.50;;;;;;601718;238;26602;-66